Time;durP1;ratioP1;P1;durP2;ratioP2;P2;SDS_P1;SDS_P2;PMS_P1;PMS_P2;Temp;Humidity;BMP_temperature;BMP_pressure;BME280_temperature;BME280_humidity;BME280_pressure;Samples;Min_cycle;Max_cycle;Signal;HPM_P1;HPM_P2
2021/06/07 00:03:29;;;;;;;2.97;2.40;;;;;12.60;101928.00;;;;10450991;28;20281;-78
2021/06/07 00:08:31;;;;;;;5.23;2.40;;;;;12.50;101925.00;;;;10475669;28;20200;-77
2021/06/07 00:13:34;;;;;;;3.40;2.50;;;;;12.50;101922.00;;;;10469758;28;20192;-78
2021/06/07 00:18:37;;;;;;;3.30;2.43;;;;;12.40;101933.00;;;;10474038;28;20590;-78
2021/06/07 00:23:40;;;;;;;3.17;2.50;;;;;12.30;101920.00;;;;10460719;28;20219;-77
2021/06/07 00:28:42;;;;;;;3.67;2.47;;;;;12.20;101926.00;;;;10517843;28;20192;-79
2021/06/07 00:33:44;;;;;;;5.57;2.40;;;;;12.10;101930.00;;;;10499332;28;20982;-78
2021/06/07 00:38:48;;;;;;;2.97;2.63;;;;;12.00;101929.00;;;;10499375;28;20223;-77
2021/06/07 00:43:58;;;;;;;4.87;3.00;;;;;11.90;101920.00;;;;10516152;28;20288;-77
2021/06/07 00:49:01;;;;;;;4.30;2.63;;;;;11.80;101923.00;;;;10499668;28;20200;-79
2021/06/07 00:54:05;;;;;;;3.93;2.73;;;;;11.70;101919.00;;;;10510725;28;20675;-78
2021/06/07 00:59:07;;;;;;;5.43;3.27;;;;;11.70;101921.00;;;;10476732;28;20202;-77
2021/06/07 01:04:09;;;;;;;3.07;2.73;;;;;11.60;101922.00;;;;10506724;28;20185;-78
2021/06/07 01:09:11;;;;;;;3.37;2.77;;;;;11.60;101920.00;;;;10441754;28;20641;-77
2021/06/07 01:14:13;;;;;;;4.03;2.60;;;;;11.50;101931.00;;;;10459076;28;20668;-77
2021/06/07 01:19:18;;;;;;;7.03;2.97;;;;;11.40;101926.00;;;;10506737;28;20205;-78
2021/06/07 01:24:20;;;;;;;4.90;2.80;;;;;11.40;101924.00;;;;10508655;28;20206;-78
2021/06/07 01:29:22;;;;;;;4.23;2.97;;;;;11.40;101918.00;;;;10497971;28;20280;-78
2021/06/07 01:34:42;;;;;;;5.00;2.90;;;;;11.30;101916.00;;;;10493649;28;20216;-78
2021/06/07 01:39:44;;;;;;;3.13;2.83;;;;;11.30;101910.00;;;;10498548;28;20794;-78
2021/06/07 01:45:06;;;;;;;4.10;3.63;;;;;11.20;101918.00;;;;10497154;28;20193;-77
2021/06/07 01:50:27;;;;;;;3.60;3.03;;;;;11.20;101911.00;;;;10461728;28;20188;-76
2021/06/07 01:55:51;;;;;;;3.93;3.47;;;;;11.20;101922.00;;;;10494926;28;20747;-77
2021/06/07 02:01:13;;;;;;;5.97;3.13;;;;;11.10;101913.00;;;;10519590;28;20283;-77
2021/06/07 02:06:21;;;;;;;3.90;2.90;;;;;11.00;101908.00;;;;10481784;28;20189;-77
2021/06/07 02:11:28;;;;;;;4.63;3.10;;;;;11.00;101914.00;;;;10455385;28;20185;-77
2021/06/07 02:16:33;;;;;;;4.93;2.87;;;;;10.90;101915.00;;;;10455099;28;20182;-77
2021/06/07 02:21:37;;;;;;;3.93;3.23;;;;;10.80;101915.00;;;;10455291;28;20225;-77
2021/06/07 02:26:39;;;;;;;5.73;3.03;;;;;10.70;101914.00;;;;10456338;28;20202;-80
2021/06/07 02:31:43;;;;;;;7.53;3.57;;;;;10.60;101912.00;;;;10471590;28;20220;-78
2021/06/07 02:36:46;;;;;;;5.43;3.50;;;;;10.60;101909.00;;;;10523899;28;20197;-77
2021/06/07 02:41:48;;;;;;;5.57;3.47;;;;;10.50;101918.00;;;;10529956;28;20227;-78
2021/06/07 02:46:50;;;;;;;4.43;4.03;;;;;10.50;101917.00;;;;10512553;28;20185;-77
2021/06/07 02:51:52;;;;;;;4.23;3.70;;;;;10.40;101916.00;;;;10495493;28;20200;-77
2021/06/07 02:56:54;;;;;;;5.20;3.50;;;;;10.30;101916.00;;;;10495790;28;20213;-78
2021/06/07 03:01:56;;;;;;;5.17;3.53;;;;;10.30;101918.00;;;;10494940;28;20204;-76
2021/06/07 03:06:58;;;;;;;8.13;3.97;;;;;10.30;101917.00;;;;10493956;28;20231;-77
2021/06/07 03:12:03;;;;;;;6.47;3.23;;;;;10.30;101927.00;;;;10511623;28;20196;-79
2021/06/07 03:17:05;;;;;;;6.50;3.80;;;;;10.30;101935.00;;;;10511531;28;20258;-77
2021/06/07 03:22:07;;;;;;;9.63;4.37;;;;;10.20;101928.00;;;;10495352;28;20196;-77
2021/06/07 03:27:10;;;;;;;7.17;3.97;;;;;10.10;101934.00;;;;10511090;28;20205;-78
2021/06/07 03:32:12;;;;;;;6.07;4.33;;;;;10.10;101928.00;;;;10494604;28;20281;-78
2021/06/07 03:37:14;;;;;;;5.33;4.60;;;;;10.10;101918.00;;;;10487319;28;20213;-78
2021/06/07 03:42:16;;;;;;;5.80;4.23;;;;;10.20;101929.00;;;;10523563;28;20201;-80
2021/06/07 03:47:18;;;;;;;5.20;4.50;;;;;10.20;101921.00;;;;10453467;28;20192;-78
2021/06/07 03:52:20;;;;;;;5.03;4.20;;;;;10.30;101918.00;;;;10452849;28;20193;-78
2021/06/07 03:57:22;;;;;;;6.47;4.70;;;;;10.40;101933.00;;;;10504642;28;20209;-78
2021/06/07 04:02:24;;;;;;;5.97;4.17;;;;;10.50;101921.00;;;;10476491;28;20647;-78
2021/06/07 04:07:26;;;;;;;7.17;4.60;;;;;10.60;101924.00;;;;10493530;28;20590;-78
2021/06/07 04:12:27;;;;;;;5.10;4.60;;;;;10.80;101915.00;;;;10510411;28;20184;-78
2021/06/07 04:17:29;;;;;;;6.10;4.63;;;;;11.00;101922.00;;;;10493373;28;20299;-78
2021/06/07 04:22:32;;;;;;;6.50;5.00;;;;;11.30;101929.00;;;;10475941;28;20196;-77
2021/06/07 04:27:34;;;;;;;10.00;4.30;;;;;11.70;101933.00;;;;10491960;28;20204;-78
2021/06/07 04:32:37;;;;;;;8.10;5.27;;;;;12.20;101937.00;;;;10493506;28;20744;-78
2021/06/07 04:37:42;;;;;;;6.23;4.87;;;;;12.50;101938.00;;;;10492469;28;20216;-77
2021/06/07 04:42:44;;;;;;;7.80;5.93;;;;;12.90;101943.00;;;;10492517;28;20197;-78
2021/06/07 04:47:47;;;;;;;7.23;6.13;;;;;13.10;101940.00;;;;10468054;28;20185;-77
2021/06/07 04:53:02;;;;;;;8.43;5.47;;;;;13.30;101941.00;;;;10438932;28;20664;-77
2021/06/07 04:58:25;;;;;;;10.03;5.60;;;;;13.50;101946.00;;;;10496296;28;20232;-78
2021/06/07 05:03:28;;;;;;;8.83;6.67;;;;;13.60;101934.00;;;;10457432;28;20232;-78
2021/06/07 05:08:30;;;;;;;6.87;6.00;;;;;13.90;101944.00;;;;10457865;28;20220;-78
2021/06/07 05:13:32;;;;;;;9.07;6.50;;;;;14.20;101946.00;;;;10473439;28;20198;-77
2021/06/07 05:18:35;;;;;;;6.40;5.80;;;;;14.40;101958.00;;;;10456367;28;20219;-77
2021/06/07 05:23:37;;;;;;;6.50;5.90;;;;;14.30;101955.00;;;;10442237;28;20275;-78
2021/06/07 05:28:39;;;;;;;8.20;6.37;;;;;14.30;101956.00;;;;10494885;28;20189;-77
2021/06/07 05:33:41;;;;;;;13.67;7.10;;;;;14.80;101960.00;;;;10514820;28;20695;-78
2021/06/07 05:38:43;;;;;;;7.50;6.20;;;;;15.70;101964.00;;;;10498019;28;20209;-77
2021/06/07 05:43:45;;;;;;;7.03;5.73;;;;;15.70;101962.00;;;;10498529;28;20258;-77
2021/06/07 05:48:47;;;;;;;10.27;6.90;;;;;16.00;101962.00;;;;10480936;28;20926;-77
2021/06/07 05:53:49;;;;;;;8.03;6.67;;;;;16.00;101955.00;;;;10530566;28;20197;-78
2021/06/07 05:58:57;;;;;;;7.30;6.63;;;;;16.30;101961.00;;;;10491549;28;20219;-78
2021/06/07 06:03:59;;;;;;;9.07;7.00;;;;;17.10;101954.00;;;;10494438;28;20196;-77
2021/06/07 06:09:01;;;;;;;7.67;6.37;;;;;17.70;101958.00;;;;10513408;28;20192;-77
2021/06/07 06:14:03;;;;;;;7.78;6.97;;;;;18.10;101947.00;;;;10460528;28;20196;-79
2021/06/07 06:19:05;;;;;;;7.85;6.60;;;;;18.40;101935.00;;;;10479345;28;20213;-79
2021/06/07 06:24:09;;;;;;;8.63;6.55;;;;;18.80;101940.00;;;;10474086;28;20659;-80
2021/06/07 06:29:10;;;;;;;8.50;6.82;;;;;19.20;101941.00;;;;10487792;28;20177;-80
2021/06/07 06:34:12;;;;;;;10.32;6.82;;;;;19.80;101933.00;;;;10476783;28;20221;-80
2021/06/07 06:39:14;;;;;;;7.40;6.70;;;;;20.10;101932.00;;;;10509475;28;20208;-79
2021/06/07 06:44:16;;;;;;;9.27;6.55;;;;;20.30;101926.00;;;;10480286;28;21074;-79
2021/06/07 06:49:18;;;;;;;9.95;7.40;;;;;20.60;101920.00;;;;10477326;28;20208;-80
2021/06/07 06:54:20;;;;;;;9.82;7.53;;;;;20.90;101925.00;;;;10464632;28;20228;-78
2021/06/07 06:59:22;;;;;;;15.35;8.10;;;;;21.20;101917.00;;;;10506064;28;20702;-79
2021/06/07 07:04:24;;;;;;;9.05;6.32;;;;;21.70;101910.00;;;;10482421;28;20558;-80
2021/06/07 07:09:26;;;;;;;12.45;7.00;;;;;21.90;101908.00;;;;10492507;28;20216;-78
2021/06/07 07:14:28;;;;;;;10.48;6.25;;;;;22.30;101907.00;;;;10469134;28;20200;-80
2021/06/07 07:19:30;;;;;;;7.90;6.28;;;;;23.00;101892.00;;;;10505824;28;20197;-79
2021/06/07 07:24:32;;;;;;;11.38;6.20;;;;;23.30;101884.00;;;;10463796;28;20203;-78
2021/06/07 07:29:33;;;;;;;9.13;7.20;;;;;23.40;101884.00;;;;10492634;28;20209;-76
2021/06/07 07:34:37;;;;;;;6.57;5.40;;;;;23.70;101876.00;;;;10466865;28;20236;-76
2021/06/07 07:39:43;;;;;;;6.43;5.82;;;;;23.80;101876.00;;;;10504291;28;20254;-76
2021/06/07 07:44:44;;;;;;;5.88;5.28;;;;;23.80;101873.00;;;;10485661;28;20208;-78
2021/06/07 07:49:47;;;;;;;6.25;5.00;;;;;24.00;101871.00;;;;10460301;28;20251;-76
2021/06/07 07:54:51;;;;;;;6.25;5.28;;;;;24.20;101877.00;;;;10464098;28;20212;-75
2021/06/07 07:59:53;;;;;;;5.07;4.55;;;;;24.40;101870.00;;;;10484120;28;20204;-76
2021/06/07 08:04:55;;;;;;;5.82;4.70;;;;;24.80;101872.00;;;;10488192;28;20204;-76
2021/06/07 08:09:57;;;;;;;5.22;4.53;;;;;25.10;101872.00;;;;10476164;28;20666;-77
2021/06/07 08:14:59;;;;;;;5.07;4.60;;;;;25.10;101876.00;;;;10479973;28;20197;-77
2021/06/07 08:20:09;;;;;;;5.68;4.90;;;;;25.50;101864.00;;;;10452176;28;20198;-77
2021/06/07 08:25:11;;;;;;;7.95;4.60;;;;;25.80;101851.00;;;;10487162;28;20197;-76
2021/06/07 08:30:14;;;;;;;6.32;4.65;;;;;26.10;101855.00;;;;10478878;28;20185;-77
2021/06/07 08:35:17;;;;;;;4.75;3.40;;;;;26.00;101864.00;;;;10493210;28;20266;-77
2021/06/07 08:40:19;;;;;;;4.78;4.28;;;;;26.50;101852.00;;;;10476557;28;20209;-77
2021/06/07 08:45:23;;;;;;;7.45;4.45;;;;;26.90;101859.00;;;;10465674;28;20197;-76
2021/06/07 08:50:30;;;;;;;7.80;4.40;;;;;27.10;101865.00;;;;10527892;28;20214;-77
2021/06/07 08:55:34;;;;;;;5.25;4.40;;;;;26.90;101865.00;;;;10516807;28;20679;-76
2021/06/07 09:00:39;;;;;;;6.07;5.53;;;;;27.10;101861.00;;;;10471846;28;20213;-76
2021/06/07 09:05:43;;;;;;;8.52;4.78;;;;;27.10;101860.00;;;;10504895;28;20209;-77
2021/06/07 09:10:48;;;;;;;6.15;4.82;;;;;27.30;101862.00;;;;10507771;28;20833;-76
2021/06/07 09:15:55;;;;;;;5.72;4.88;;;;;28.20;101855.00;;;;10486134;28;20238;-76
2021/06/07 09:21:01;;;;;;;6.65;5.28;;;;;28.80;101861.00;;;;10499937;28;20211;-77
2021/06/07 09:26:03;;;;;;;7.72;4.75;;;;;28.70;101851.00;;;;10503651;28;20575;-78
2021/06/07 09:31:08;;;;;;;8.43;5.32;;;;;28.10;101857.00;;;;10525892;28;20826;-77
2021/06/07 09:36:23;;;;;;;7.05;5.32;;;;;28.30;101845.00;;;;10486906;28;20193;-77
2021/06/07 09:41:28;;;;;;;5.75;4.10;;;;;28.40;101855.00;;;;10491723;28;20204;-78
2021/06/07 09:46:31;;;;;;;8.35;4.63;;;;;28.30;101852.00;;;;10503704;28;20204;-77
2021/06/07 09:51:34;;;;;;;7.68;3.92;;;;;28.30;101856.00;;;;10511979;28;20181;-78
2021/06/07 09:56:57;;;;;;;4.65;3.95;;;;;28.60;101857.00;;;;10502099;28;20196;-78
2021/06/07 10:02:01;;;;;;;8.88;5.25;;;;;28.60;101860.00;;;;10535220;28;20209;-78
2021/06/07 10:07:07;;;;;;;3.63;3.30;;;;;28.50;101860.00;;;;10515830;28;20197;-78
2021/06/07 10:12:25;;;;;;;3.55;2.90;;;;;28.30;101861.00;;;;10487570;28;20288;-78
2021/06/07 10:17:33;;;;;;;5.30;3.10;;;;;28.30;101846.00;;;;10497366;28;20234;-78
2021/06/07 10:22:39;;;;;;;3.63;3.33;;;;;28.40;101847.00;;;;10501972;28;20244;-78
2021/06/07 10:27:41;;;;;;;3.38;3.08;;;;;28.80;101842.00;;;;10483794;28;20203;-78
2021/06/07 10:32:53;;;;;;;4.53;3.17;;;;;29.00;101862.00;;;;10522303;28;20212;-79
2021/06/07 10:38:08;;;;;;;4.65;3.20;;;;;28.70;101857.00;;;;10507774;28;20193;-78
2021/06/07 10:43:11;;;;;;;3.88;2.90;;;;;28.40;101852.00;;;;10488552;28;20200;-78
2021/06/07 10:48:32;;;;;;;4.03;3.47;;;;;28.90;101857.00;;;;10479133;28;20197;-78
2021/06/07 10:53:38;;;;;;;4.85;3.45;;;;;29.10;101856.00;;;;10486361;28;20233;-77
2021/06/07 10:58:52;;;;;;;3.95;2.78;;;;;29.10;101845.00;;;;10484010;28;20746;-78
2021/06/07 11:03:57;;;;;;;3.20;2.90;;;;;29.10;101845.00;;;;10483598;28;20205;-79
2021/06/07 11:09:08;;;;;;;5.03;3.05;;;;;28.70;101850.00;;;;10475704;28;20657;-79
2021/06/07 11:14:10;;;;;;;2.78;2.50;;;;;28.70;101839.00;;;;10468357;28;20185;-78
2021/06/07 11:19:14;;;;;;;3.40;2.65;;;;;28.90;101833.00;;;;10437207;28;20213;-79
2021/06/07 11:24:35;;;;;;;4.40;3.08;;;;;29.60;101830.00;;;;10470459;28;20197;-78
2021/06/07 11:30:09;;;;;;;5.03;3.10;;;;;30.10;101829.00;;;;10486282;28;20180;-79
2021/06/07 11:35:40;;;;;;;3.28;2.80;;;;;29.70;101825.00;;;;10475304;28;20285;-78
2021/06/07 11:40:41;;;;;;;2.92;2.55;;;;;29.50;101824.00;;;;10481589;28;20211;-77
2021/06/07 11:45:43;;;;;;;3.40;2.50;;;;;29.60;101817.00;;;;10491701;28;20587;-79
2021/06/07 11:50:46;;;;;;;4.25;2.72;;;;;29.50;101817.00;;;;10479263;28;20197;-79
2021/06/07 11:55:53;;;;;;;3.45;2.45;;;;;29.40;101809.00;;;;10506897;28;20205;-78
2021/06/07 12:01:00;;;;;;;3.17;2.88;;;;;29.30;101813.00;;;;10481499;28;20236;-78
2021/06/07 12:06:07;;;;;;;3.58;2.95;;;;;29.60;101801.00;;;;10488985;28;20201;-78
2021/06/07 12:11:09;;;;;;;4.43;2.80;;;;;29.80;101802.00;;;;10509226;28;20194;-79
2021/06/07 12:16:16;;;;;;;3.40;2.88;;;;;29.80;101801.00;;;;10481204;28;20205;-79
2021/06/07 12:21:21;;;;;;;3.22;2.85;;;;;30.10;101790.00;;;;10492690;28;20209;-79
2021/06/07 12:32:18;;;;;;;3.85;2.70;;;;;30.30;101793.00;;;;10492188;28;20216;-78
2021/06/07 12:37:36;;;;;;;4.53;3.22;;;;;30.20;101791.00;;;;10488406;28;20300;-79
2021/06/07 12:42:38;;;;;;;6.00;2.95;;;;;29.70;101797.00;;;;10470731;28;20216;-79
2021/06/07 12:47:41;;;;;;;3.60;2.50;;;;;29.80;101789.00;;;;10510534;28;20204;-79
2021/06/07 12:52:47;;;;;;;5.38;3.08;;;;;29.90;101784.00;;;;10511203;28;20189;-80
2021/06/07 12:57:50;;;;;;;4.63;3.70;;;;;29.60;101772.00;;;;10477835;28;20568;-79
2021/06/07 13:02:52;;;;;;;4.57;3.35;;;;;29.70;101767.00;;;;10488519;28;20214;-79
2021/06/07 13:08:16;;;;;;;5.10;3.83;;;;;30.20;101780.00;;;;10450869;28;20197;-78
2021/06/07 13:13:30;;;;;;;3.65;3.35;;;;;30.30;101772.00;;;;10468593;28;20212;-79
2021/06/07 13:19:06;;;;;;;3.00;2.80;;;;;31.40;101773.00;;;;10483826;28;20213;-78
2021/06/07 13:24:08;;;;;;;7.30;3.17;;;;;31.70;101774.00;;;;10475143;28;20251;-78
2021/06/07 13:29:16;;;;;;;3.40;3.10;;;;;32.70;101771.00;;;;10512855;28;20272;-79
2021/06/07 13:34:27;;;;;;;6.07;3.13;;;;;32.90;101776.00;;;;10511921;28;20263;-77
2021/06/07 13:39:29;;;;;;;4.93;2.72;;;;;33.90;101767.00;;;;10514516;28;20205;-77
2021/06/07 13:44:52;;;;;;;6.15;3.17;;;;;34.60;101769.00;;;;10495859;28;20196;-77
2021/06/07 13:50:15;;;;;;;5.05;3.60;;;;;35.30;101760.00;;;;10490253;28;20197;-77
2021/06/07 13:55:21;;;;;;;5.65;3.58;;;;;36.00;101755.00;;;;10493026;28;20670;-78
2021/06/07 14:00:25;;;;;;;2.58;2.38;;;;;36.10;101763.00;;;;10493388;28;20198;-79
2021/06/07 14:05:29;;;;;;;3.65;1.90;;;;;36.80;101758.00;;;;10472312;28;20196;-79
2021/06/07 14:10:31;;;;;;;2.55;2.35;;;;;37.50;101751.00;;;;10512549;28;20192;-79
2021/06/07 14:15:33;;;;;;;2.97;2.67;;;;;35.30;101760.00;;;;10496065;28;20193;-78
2021/06/07 14:20:35;;;;;;;5.22;3.38;;;;;37.30;101756.00;;;;10506668;28;20213;-79
2021/06/07 14:25:38;;;;;;;3.40;3.10;;;;;38.30;101752.00;;;;10530460;28;20548;-80
2021/06/07 14:30:43;;;;;;;6.60;2.92;;;;;38.40;101749.00;;;;10493413;28;20196;-78
2021/06/07 14:35:45;;;;;;;3.40;2.30;;;;;39.30;101746.00;;;;10515852;28;20224;-78
2021/06/07 14:40:55;;;;;;;3.75;2.92;;;;;39.00;101748.00;;;;10549685;28;20218;-79
2021/06/07 14:45:58;;;;;;;5.15;2.90;;;;;37.10;101747.00;;;;10517824;28;20189;-78
2021/06/07 14:51:01;;;;;;;5.47;3.42;;;;;37.80;101732.00;;;;10497706;28;20193;-79
2021/06/07 14:56:05;;;;;;;4.75;2.88;;;;;39.30;101718.00;;;;10513300;28;20212;-79
2021/06/07 15:01:07;;;;;;;2.85;2.28;;;;;40.40;101714.00;;;;10495407;28;20192;-79
2021/06/07 15:06:09;;;;;;;3.60;2.90;;;;;40.30;101717.00;;;;10497378;28;20200;-79
2021/06/07 15:11:12;;;;;;;3.35;2.05;;;;;41.00;101714.00;;;;10469891;28;20216;-80
2021/06/07 15:16:14;;;;;;;3.78;3.10;;;;;41.10;101701.00;;;;10497028;28;20196;-80
2021/06/07 15:21:16;;;;;;;4.20;2.80;;;;;40.50;101704.00;;;;10478274;28;20220;-80
2021/06/07 15:26:19;;;;;;;3.30;2.40;;;;;36.60;101690.00;;;;10464406;28;20208;-79
2021/06/07 15:31:23;;;;;;;4.38;3.08;;;;;39.50;101685.00;;;;10507651;28;20224;-79
2021/06/07 15:36:30;;;;;;;2.47;2.22;;;;;40.20;101689.00;;;;10489056;28;20634;-80
2021/06/07 15:41:31;;;;;;;4.05;2.60;;;;;40.10;101682.00;;;;10516154;28;20193;-79
2021/06/07 15:46:33;;;;;;;4.63;2.70;;;;;37.00;101702.00;;;;10507903;28;20185;-79
2021/06/07 15:51:36;;;;;;;5.20;2.70;;;;;33.30;101693.00;;;;10523754;28;20196;-81
2021/06/07 15:56:38;;;;;;;4.68;2.40;;;;;31.10;101694.00;;;;10451336;28;20193;-80
2021/06/07 16:01:40;;;;;;;4.15;2.97;;;;;29.50;101685.00;;;;10468323;28;20758;-79
2021/06/07 16:06:42;;;;;;;2.28;2.08;;;;;29.10;101685.00;;;;10534886;28;20221;-79
2021/06/07 16:11:47;;;;;;;2.83;2.38;;;;;28.00;101682.00;;;;10502657;28;20208;-79
2021/06/07 16:16:51;;;;;;;4.88;2.97;;;;;27.90;101678.00;;;;10492221;28;20229;-78
2021/06/07 16:21:53;;;;;;;5.72;3.72;;;;;28.10;101676.00;;;;10524024;28;20531;-78
2021/06/07 16:26:55;;;;;;;3.97;3.00;;;;;27.90;101671.00;;;;10493073;28;20207;-79
2021/06/07 16:31:59;;;;;;;3.60;2.70;;;;;27.70;101660.00;;;;10506399;28;20285;-78
2021/06/07 16:37:03;;;;;;;5.07;2.72;;;;;27.30;101668.00;;;;10505821;28;20209;-78
2021/06/07 16:42:06;;;;;;;5.10;3.00;;;;;26.60;101677.00;;;;10506670;28;20284;-79
2021/06/07 16:47:08;;;;;;;6.05;3.10;;;;;25.70;101674.00;;;;10488491;28;20200;-79
2021/06/07 16:52:10;;;;;;;4.13;3.30;;;;;25.20;101662.00;;;;10458204;28;20213;-78
2021/06/07 16:57:13;;;;;;;4.88;2.67;;;;;25.20;101665.00;;;;10458538;28;20201;-77
2021/06/07 17:02:15;;;;;;;3.78;2.67;;;;;25.10;101655.00;;;;10487106;28;20189;-77
2021/06/07 17:07:18;;;;;;;3.25;2.67;;;;;25.10;101653.00;;;;10516595;28;20281;-77
2021/06/07 17:12:20;;;;;;;3.25;2.72;;;;;25.00;101661.00;;;;10474568;28;20908;-78
2021/06/07 17:17:25;;;;;;;2.80;2.35;;;;;25.00;101658.00;;;;10474504;28;20197;-78
2021/06/07 17:22:27;;;;;;;3.90;2.63;;;;;25.10;101662.00;;;;10473630;28;20197;-78
2021/06/07 17:27:29;;;;;;;2.88;2.50;;;;;25.00;101649.00;;;;10489245;28;20225;-78
2021/06/07 17:32:31;;;;;;;5.43;3.03;;;;;24.80;101657.00;;;;10522000;28;20224;-77
2021/06/07 17:37:34;;;;;;;3.45;2.92;;;;;24.60;101650.00;;;;10492906;28;20238;-77
2021/06/07 17:42:37;;;;;;;3.60;3.20;;;;;24.50;101658.00;;;;10519659;28;20188;-77
2021/06/07 17:47:39;;;;;;;3.13;2.88;;;;;24.30;101647.00;;;;10515502;28;20246;-78
2021/06/07 17:52:43;;;;;;;3.03;2.13;;;;;24.20;101650.00;;;;10516213;28;20212;-78
2021/06/07 17:57:46;;;;;;;3.47;2.30;;;;;24.10;101641.00;;;;10497914;28;20193;-77
2021/06/07 18:02:49;;;;;;;3.22;1.77;;;;;24.00;101651.00;;;;10514604;28;20189;-78
2021/06/07 18:07:51;;;;;;;2.38;2.20;;;;;23.90;101647.00;;;;10497792;28;20720;-77
2021/06/07 18:12:53;;;;;;;2.92;2.58;;;;;23.80;101647.00;;;;10444215;28;20224;-77
2021/06/07 18:17:55;;;;;;;3.97;2.53;;;;;23.70;101653.00;;;;10463620;28;20205;-78
2021/06/07 18:22:57;;;;;;;3.35;2.08;;;;;23.60;101652.00;;;;10472523;28;20188;-78
2021/06/07 18:28:01;;;;;;;3.95;2.17;;;;;23.50;101650.00;;;;10455749;28;20189;-78
2021/06/07 18:33:03;;;;;;;2.53;2.33;;;;;23.30;101652.00;;;;10463454;28;20234;-77
2021/06/07 18:38:05;;;;;;;3.92;1.98;;;;;23.20;101648.00;;;;10512797;28;20706;-77
2021/06/07 18:43:07;;;;;;;2.72;1.90;;;;;23.10;101651.00;;;;10488108;28;20178;-78
2021/06/07 18:48:11;;;;;;;2.00;1.90;;;;;23.00;101648.00;;;;10454834;28;20190;-78
2021/06/07 18:53:14;;;;;;;2.67;2.00;;;;;22.90;101656.00;;;;10471529;28;20213;-79
2021/06/07 18:58:17;;;;;;;3.50;2.25;;;;;22.80;101663.00;;;;10513952;28;20269;-77
2021/06/07 19:03:19;;;;;;;3.00;2.13;;;;;22.70;101664.00;;;;10498423;28;20205;-78
2021/06/07 19:08:22;;;;;;;1.80;1.70;;;;;22.60;101669.00;;;;10515619;28;20618;-77
2021/06/07 19:13:24;;;;;;;3.22;1.80;;;;;23.20;101671.00;;;;10530697;28;20206;-78
2021/06/07 19:18:26;;;;;;;4.70;2.15;;;;;24.40;101678.00;;;;10497958;28;20231;-79
2021/06/07 19:23:28;;;;;;;3.75;2.00;;;;;23.70;101681.00;;;;10530021;28;20188;-79
2021/06/07 19:28:30;;;;;;;5.15;1.90;;;;;23.00;101685.00;;;;10497770;28;20193;-78
2021/06/07 19:33:32;;;;;;;2.63;1.80;;;;;22.40;101683.00;;;;10532895;28;20213;-79
2021/06/07 19:38:38;;;;;;;2.25;1.90;;;;;21.80;101690.00;;;;10472893;28;20201;-78
2021/06/07 19:43:40;;;;;;;2.97;2.17;;;;;21.40;101693.00;;;;10479885;28;20600;-78
2021/06/07 19:48:42;;;;;;;2.28;1.85;;;;;20.90;101706.00;;;;10513502;28;20201;-78
2021/06/07 19:53:44;;;;;;;2.65;1.90;;;;;20.50;101709.00;;;;10513889;28;20216;-79
2021/06/07 19:58:46;;;;;;;2.58;2.10;;;;;20.20;101711.00;;;;10497127;28;20207;-78
2021/06/07 20:03:48;;;;;;;4.38;2.10;;;;;19.80;101722.00;;;;10505126;28;20275;-78
2021/06/07 20:08:54;;;;;;;2.92;2.20;;;;;19.50;101727.00;;;;10513906;28;20185;-79
2021/06/07 20:13:56;;;;;;;3.28;2.78;;;;;19.30;101742.00;;;;10509556;28;20295;-77
2021/06/07 20:18:58;;;;;;;5.65;3.13;;;;;19.10;101747.00;;;;10495941;28;20188;-78
2021/06/07 20:24:03;;;;;;;5.88;3.53;;;;;19.00;101758.00;;;;10500555;28;20250;-79
2021/06/07 20:29:05;;;;;;;5.40;3.15;;;;;18.90;101752.00;;;;10504202;28;20192;-79
2021/06/07 20:34:12;;;;;;;8.63;3.28;;;;;18.80;101762.00;;;;10485360;28;20224;-78
2021/06/07 20:39:14;;;;;;;6.70;3.28;;;;;18.60;101758.00;;;;10505686;28;20193;-78
2021/06/07 20:44:16;;;;;;;9.25;3.88;;;;;18.60;101759.00;;;;10538995;28;20199;-78
2021/06/07 20:49:17;;;;;;;4.22;3.83;;;;;18.50;101763.00;;;;10538411;28;20200;-78
2021/06/07 20:54:20;;;;;;;6.40;3.58;;;;;18.40;101762.00;;;;10515045;28;20205;-78
2021/06/07 20:59:21;;;;;;;5.00;3.50;;;;;18.30;101761.00;;;;10448160;28;20269;-78
2021/06/07 21:04:23;;;;;;;5.57;3.38;;;;;18.10;101763.00;;;;10494501;28;20190;-78
2021/06/07 21:09:25;;;;;;;9.40;4.27;;;;;18.00;101762.00;;;;10461624;28;20243;-78
2021/06/07 21:14:27;;;;;;;8.67;4.27;;;;;17.90;101762.00;;;;10461387;28;20202;-79
2021/06/07 21:19:29;;;;;;;8.37;4.50;;;;;17.80;101764.00;;;;10480042;28;20193;-78
2021/06/07 21:24:33;;;;;;;10.57;4.80;;;;;17.80;101761.00;;;;10503580;28;20193;-78
2021/06/07 21:29:35;;;;;;;11.47;4.50;;;;;17.70;101765.00;;;;10486095;28;20185;-78
2021/06/07 21:34:38;;;;;;;5.87;4.00;;;;;17.40;101766.00;;;;10533697;28;20228;-78
2021/06/07 21:39:40;;;;;;;4.90;4.20;;;;;17.30;101771.00;;;;10517887;28;20195;-77
2021/06/07 21:44:42;;;;;;;8.60;4.67;;;;;17.10;101766.00;;;;10501573;28;20211;-78
2021/06/07 21:49:44;;;;;;;5.43;4.90;;;;;16.90;101769.00;;;;10497131;28;20557;-78
2021/06/07 21:54:46;;;;;;;10.37;4.83;;;;;16.80;101769.00;;;;10460888;28;20193;-78
2021/06/07 21:59:48;;;;;;;9.37;5.17;;;;;16.80;101776.00;;;;10477542;28;20174;-78
2021/06/07 22:04:50;;;;;;;6.57;5.60;;;;;16.70;101769.00;;;;10460397;28;20197;-79
2021/06/07 22:09:52;;;;;;;9.60;5.70;;;;;16.70;101768.00;;;;10477003;28;20288;-78
2021/06/07 22:14:54;;;;;;;9.97;5.30;;;;;16.60;101782.00;;;;10443660;28;20223;-78
2021/06/07 22:19:56;;;;;;;6.17;5.17;;;;;16.50;101783.00;;;;10492595;28;20228;-78
2021/06/07 22:25:00;;;;;;;8.13;4.83;;;;;16.40;101779.00;;;;10472670;28;20208;-79
2021/06/07 22:30:05;;;;;;;7.30;5.40;;;;;16.30;101781.00;;;;10517668;28;20219;-78
2021/06/07 22:35:08;;;;;;;6.20;5.60;;;;;16.10;101780.00;;;;10534195;28;20217;-78
2021/06/07 22:40:11;;;;;;;5.70;5.17;;;;;16.00;101790.00;;;;10484196;28;20181;-78
2021/06/07 22:45:13;;;;;;;6.70;5.93;;;;;15.90;101788.00;;;;10499638;28;20276;-79
2021/06/07 22:50:15;;;;;;;6.40;5.80;;;;;15.80;101788.00;;;;10484091;28;20209;-78
2021/06/07 22:55:17;;;;;;;9.47;5.77;;;;;15.70;101789.00;;;;10499419;28;20202;-78
2021/06/07 23:00:20;;;;;;;7.90;6.30;;;;;15.60;101789.00;;;;10441798;28;20194;-78
2021/06/07 23:05:27;;;;;;;8.53;5.73;;;;;15.60;101786.00;;;;10476442;28;20217;-78
2021/06/07 23:10:29;;;;;;;7.27;6.57;;;;;15.60;101797.00;;;;10490679;28;20213;-79
2021/06/07 23:15:32;;;;;;;8.97;6.63;;;;;15.50;101797.00;;;;10444825;28;20244;-78
2021/06/07 23:20:34;;;;;;;8.07;6.70;;;;;15.40;101795.00;;;;10542519;28;20188;-79
2021/06/07 23:25:36;;;;;;;9.87;6.10;;;;;15.40;101792.00;;;;10504772;28;20188;-78
2021/06/07 23:30:38;;;;;;;8.63;6.97;;;;;15.30;101795.00;;;;10481874;28;20687;-79
2021/06/07 23:35:40;;;;;;;10.60;6.97;;;;;15.20;101791.00;;;;10499120;28;20706;-79
2021/06/07 23:40:42;;;;;;;8.40;6.93;;;;;15.10;101802.00;;;;10483011;28;20193;-79
2021/06/07 23:45:44;;;;;;;7.63;6.93;;;;;15.00;101804.00;;;;10515278;28;20188;-79
2021/06/07 23:50:46;;;;;;;10.13;7.23;;;;;14.90;101796.00;;;;10498375;28;20243;-79
2021/06/07 23:55:48;;;;;;;8.03;6.90;;;;;14.90;101800.00;;;;10499133;28;20207;-79
